LFKF 301030Z AUTO 07012KT 010V110 9999 FEW039 SCT058 BKN076 21/11 Q1015

ElémentsDécodage
LFKF Station météo située sur l'aérodrome de FIGARI Sud-Corse
301030Z émis le 30 du mois à 10h30 UTC
AUTO Bulletin édité par un automate
07012KT vent du 070°, 12 noeuds
010V110 vent de direction variable entre 010° et 110°
9999 visibilité horizontale supérieure à 10 Km
FEW039 nuages rares (1/8 à 2/8) à 3900 pieds
SCT058 nuages épars (3/8 à 4/8) à 5800 pieds
BKN076 nuages morcelés (5/8 à 7/8) à 7600 pieds
21/11 température 21°C, point de rosée 11°C
 soit une humidité relative de 53%
Q1015 la pression au niveau de la mer (QNH) est de 1015 hPa